KSBM/SBM METAR and TAF weather

Enter ICAO airport designator
Station Type Date Time Source
KSBM METAR 2022/01/19 20:53 UTC NOAA

KSBM 192053Z AUTO 30013G21KT 10SM CLR M08/M16 A3014 RMK AO2 SLP219 T10831156 53029


Station Type Date Time Source
KSBM Decoded METAR 2022/01/19 20:53 UTC NOAA

SHEBOYGAN CO MEMORIAL AIRPORT , WI, United States (KSBM) 43-47N 87-51W 232M
Jan 19, 2022 - 03:53 PM EST / 2022.01.19 2053 UTC
Wind: from the WNW (300 degrees) at 15 MPH (13 KT) gusting to 24 MPH (21 KT):0
Visibility: 10 mile(s):0
Sky conditions: clear
Temperature: 17.1 F (-8.3 C)
Windchill: 3 F (-16 C):1
Dew Point: 3.9 F (-15.6 C)
Relative Humidity: 55%
Pressure (altimeter): 30.14 in. Hg (1020 hPa)
Pressure tendency: 0.09 inches (2.9 hPa) higher than three hours ago
ob: KSBM 192053Z AUTO 30013G21KT 10SM CLR M08/M16 A3014 RMK AO2 SLP219 T10831156 53029
cycle: 21

Station Type Date Time Source
KSBM TAF 2022/01/19 18:22 UTC NOAA

TAF KSBM 191720Z 1918/2018 31017G27KT P6SM FEW030
FM200200 32013KT P6SM SCT050

Example: see airport list